Time;durP1;ratioP1;P1;durP2;ratioP2;P2;SDS_P1;SDS_P2;PMS_P1;PMS_P2;Temp;Humidity;BMP_temperature;BMP_pressure;BME280_temperature;BME280_humidity;BME280_pressure;Samples;Min_cycle;Max_cycle;Signal;HPM_P1;HPM_P2
2023/07/13 00:01:18;;;;;;;8.60;2.33;;;;;;;;;;4994666;28;20050;-72
2023/07/13 00:03:44;;;;;;;10.00;2.35;;;;;;;;;;4982515;28;20050;-72
2023/07/13 00:06:11;;;;;;;6.32;1.30;;;;;;;;;;4980589;28;20092;-72
2023/07/13 00:08:37;;;;;;;4.75;1.15;;;;;;;;;;4987827;28;20125;-72
2023/07/13 00:11:03;;;;;;;8.27;1.30;;;;;;;;;;4990382;28;20057;-72
2023/07/13 00:13:29;;;;;;;3.38;1.05;;;;;;;;;;4991471;28;20037;-72
2023/07/13 00:15:56;;;;;;;5.55;1.23;;;;;;;;;;4993332;28;20057;-72
2023/07/13 00:18:22;;;;;;;8.27;1.40;;;;;;;;;;4990114;28;20046;-72
2023/07/13 00:20:48;;;;;;;5.90;1.30;;;;;;;;;;4988944;28;20073;-71
2023/07/13 00:23:15;;;;;;;7.55;1.00;;;;;;;;;;4989956;28;20034;-72
2023/07/13 00:25:41;;;;;;;6.50;1.35;;;;;;;;;;4988699;28;20034;-72
2023/07/13 00:28:07;;;;;;;9.68;1.95;;;;;;;;;;4988167;28;20518;-72
2023/07/13 00:30:33;;;;;;;5.70;1.58;;;;;;;;;;4992368;28;20471;-71
2023/07/13 00:33:01;;;;;;;8.23;1.77;;;;;;;;;;4990140;28;20034;-71
2023/07/13 00:35:27;;;;;;;8.77;2.10;;;;;;;;;;4990954;28;20026;-71
2023/07/13 00:37:53;;;;;;;10.10;1.88;;;;;;;;;;4989892;28;20081;-72
2023/07/13 00:40:19;;;;;;;13.27;2.78;;;;;;;;;;4989367;28;20027;-72
2023/07/13 00:42:45;;;;;;;8.05;1.42;;;;;;;;;;4989915;28;20030;-71
2023/07/13 00:45:11;;;;;;;5.88;1.63;;;;;;;;;;4985711;28;20089;-72
2023/07/13 00:47:38;;;;;;;6.18;1.45;;;;;;;;;;4982956;28;20034;-72
2023/07/13 00:50:05;;;;;;;8.27;1.48;;;;;;;;;;4990204;28;20030;-71
2023/07/13 00:52:31;;;;;;;8.27;2.40;;;;;;;;;;4989683;28;20061;-71
2023/07/13 00:54:57;;;;;;;7.10;1.15;;;;;;;;;;4983795;28;20042;-71
2023/07/13 00:57:24;;;;;;;3.78;0.90;;;;;;;;;;4989931;28;20042;-72
2023/07/13 00:59:52;;;;;;;5.95;1.27;;;;;;;;;;4984940;28;20062;-72
2023/07/13 01:02:19;;;;;;;4.38;1.40;;;;;;;;;;4987884;28;20030;-71
2023/07/13 01:04:45;;;;;;;2.33;0.60;;;;;;;;;;4991084;28;20053;-72
2023/07/13 01:07:12;;;;;;;3.65;0.85;;;;;;;;;;4980997;28;20445;-72
2023/07/13 01:09:38;;;;;;;3.92;0.80;;;;;;;;;;4971270;28;20551;-72
2023/07/13 01:12:04;;;;;;;1.48;0.80;;;;;;;;;;4988024;28;20105;-72
2023/07/13 01:14:30;;;;;;;3.05;0.80;;;;;;;;;;4989507;28;20038;-71
2023/07/13 01:17:00;;;;;;;7.72;0.80;;;;;;;;;;4990561;28;20050;-71
2023/07/13 01:19:44;;;;;;;5.38;0.88;;;;;;;;;;4987893;28;20113;-72
2023/07/13 01:22:12;;;;;;;5.97;1.30;;;;;;;;;;4988389;28;20042;-72
2023/07/13 01:24:38;;;;;;;1.95;0.90;;;;;;;;;;4991116;28;20030;-72
2023/07/13 01:27:05;;;;;;;6.55;1.27;;;;;;;;;;4990290;28;20046;-72
2023/07/13 01:29:33;;;;;;;2.85;0.80;;;;;;;;;;4991372;28;20467;-71
2023/07/13 01:31:59;;;;;;;4.00;1.08;;;;;;;;;;4991404;28;20053;-71
2023/07/13 01:34:26;;;;;;;4.63;0.75;;;;;;;;;;4992131;28;20345;-71
2023/07/13 01:36:53;;;;;;;5.68;0.82;;;;;;;;;;4993949;28;20026;-71
2023/07/13 01:39:20;;;;;;;5.65;0.80;;;;;;;;;;4994358;28;20376;-72
2023/07/13 01:41:46;;;;;;;7.43;1.17;;;;;;;;;;4991652;28;20065;-72
2023/07/13 01:44:12;;;;;;;2.88;0.73;;;;;;;;;;4992876;28;20591;-71
2023/07/13 01:46:38;;;;;;;2.97;0.80;;;;;;;;;;4991343;28;20132;-72
2023/07/13 01:49:04;;;;;;;3.95;0.85;;;;;;;;;;4993448;28;20373;-71
2023/07/13 01:51:30;;;;;;;3.58;1.13;;;;;;;;;;4991213;28;20537;-71
2023/07/13 01:53:56;;;;;;;5.47;1.92;;;;;;;;;;4993864;28;20045;-71
2023/07/13 01:56:22;;;;;;;5.97;0.70;;;;;;;;;;4992749;28;20042;-71
2023/07/13 01:58:48;;;;;;;7.80;1.33;;;;;;;;;;4989405;28;20031;-72
2023/07/13 02:01:14;;;;;;;4.47;1.00;;;;;;;;;;4979904;28;20357;-71
2023/07/13 02:03:40;;;;;;;3.85;1.05;;;;;;;;;;4993778;28;20051;-71
2023/07/13 02:06:06;;;;;;;6.50;1.48;;;;;;;;;;4974960;28;20518;-72
2023/07/13 02:08:33;;;;;;;9.60;3.25;;;;;;;;;;4987800;28;20089;-71
2023/07/13 02:10:59;;;;;;;7.68;1.35;;;;;;;;;;4992565;28;20106;-72
2023/07/13 02:13:27;;;;;;;4.85;1.10;;;;;;;;;;4993293;28;20054;-72
2023/07/13 02:15:53;;;;;;;8.82;1.75;;;;;;;;;;4988187;28;20535;-71
2023/07/13 02:18:19;;;;;;;10.95;1.60;;;;;;;;;;4991854;28;20125;-71
2023/07/13 02:20:45;;;;;;;7.70;1.73;;;;;;;;;;4993127;28;20361;-72
2023/07/13 02:23:12;;;;;;;9.40;1.60;;;;;;;;;;4989487;28;20037;-71
2023/07/13 02:25:38;;;;;;;9.23;1.90;;;;;;;;;;4986025;28;20042;-72
2023/07/13 02:28:04;;;;;;;8.23;1.90;;;;;;;;;;5003609;28;20046;-71
2023/07/13 02:30:31;;;;;;;10.55;2.08;;;;;;;;;;4987491;28;20373;-71
2023/07/13 02:32:57;;;;;;;11.70;2.50;;;;;;;;;;4991824;28;20498;-71
2023/07/13 02:35:23;;;;;;;17.83;2.22;;;;;;;;;;4993032;28;20045;-71
2023/07/13 02:37:50;;;;;;;8.98;3.22;;;;;;;;;;4990348;28;20041;-71
2023/07/13 02:40:16;;;;;;;16.73;3.75;;;;;;;;;;4987538;28;20035;-71
2023/07/13 02:42:42;;;;;;;12.55;2.45;;;;;;;;;;4992372;28;20097;-71
2023/07/13 02:45:09;;;;;;;18.02;2.63;;;;;;;;;;4992373;28;20109;-72
2023/07/13 02:47:35;;;;;;;8.60;2.10;;;;;;;;;;4992127;28;20133;-71
2023/07/13 02:50:01;;;;;;;14.30;2.25;;;;;;;;;;4997954;28;20382;-71
2023/07/13 02:52:27;;;;;;;12.93;2.50;;;;;;;;;;4996089;28;20475;-71
2023/07/13 02:54:53;;;;;;;11.93;2.55;;;;;;;;;;4992992;28;20042;-71
2023/07/13 02:57:19;;;;;;;17.23;3.83;;;;;;;;;;4992756;28;20034;-71
2023/07/13 02:59:45;;;;;;;15.00;3.00;;;;;;;;;;4988871;28;20035;-71
2023/07/13 03:02:11;;;;;;;16.40;2.83;;;;;;;;;;4985373;28;20027;-70
2023/07/13 03:04:37;;;;;;;24.02;3.38;;;;;;;;;;4988044;28;20038;-70
2023/07/13 03:07:04;;;;;;;18.25;3.97;;;;;;;;;;4979453;28;20149;-71
2023/07/13 03:09:30;;;;;;;12.90;3.03;;;;;;;;;;4986723;28;20034;-71
2023/07/13 03:11:56;;;;;;;19.00;4.10;;;;;;;;;;4976432;28;20399;-71
2023/07/13 03:14:22;;;;;;;16.70;3.25;;;;;;;;;;4979800;28;20053;-71
2023/07/13 03:16:48;;;;;;;15.75;2.83;;;;;;;;;;4979959;28;20062;-71
2023/07/13 03:19:14;;;;;;;15.10;3.30;;;;;;;;;;4988418;28;20142;-70
2023/07/13 03:21:41;;;;;;;18.95;3.22;;;;;;;;;;4984311;28;20041;-70
2023/07/13 03:24:07;;;;;;;13.75;2.88;;;;;;;;;;4979810;28;20050;-70
2023/07/13 03:26:33;;;;;;;14.60;3.22;;;;;;;;;;4983259;28;20034;-71
2023/07/13 03:28:59;;;;;;;29.20;9.35;;;;;;;;;;4985836;28;20030;-70
2023/07/13 03:31:28;;;;;;;108.20;64.72;;;;;;;;;;4986734;28;20031;-71
2023/07/13 03:33:54;;;;;;;22.10;5.60;;;;;;;;;;4995285;28;20029;-71
2023/07/13 03:36:22;;;;;;;14.23;3.00;;;;;;;;;;4993859;28;20054;-71
2023/07/13 03:38:49;;;;;;;17.25;3.38;;;;;;;;;;4988606;28;20321;-72
2023/07/13 03:41:16;;;;;;;20.05;4.30;;;;;;;;;;4988051;28;20026;-72
2023/07/13 03:43:42;;;;;;;18.88;3.65;;;;;;;;;;4983808;28;20038;-72
2023/07/13 03:46:08;;;;;;;14.02;3.50;;;;;;;;;;4984423;28;20136;-72
2023/07/13 03:48:34;;;;;;;18.25;3.28;;;;;;;;;;4988346;28;20034;-72
2023/07/13 03:51:00;;;;;;;17.85;3.70;;;;;;;;;;4992330;28;20034;-72
2023/07/13 03:53:27;;;;;;;23.23;3.42;;;;;;;;;;4985493;28;20428;-72
2023/07/13 03:55:53;;;;;;;16.08;3.88;;;;;;;;;;4987424;28;20034;-72
2023/07/13 03:58:36;;;;;;;15.00;2.90;;;;;;;;;;4991204;28;20046;-73
2023/07/13 04:01:03;;;;;;;15.57;2.67;;;;;;;;;;4989054;28;20502;-70
2023/07/13 04:03:32;;;;;;;17.98;3.92;;;;;;;;;;4978736;28;20054;-72
2023/07/13 04:05:59;;;;;;;24.05;5.30;;;;;;;;;;4987806;28;20041;-71
2023/07/13 04:08:26;;;;;;;16.38;3.70;;;;;;;;;;4988536;28;20045;-71
2023/07/13 04:10:52;;;;;;;15.40;2.92;;;;;;;;;;4987076;28;20487;-72
2023/07/13 04:13:18;;;;;;;14.13;2.50;;;;;;;;;;4983813;28;20045;-73
2023/07/13 04:15:44;;;;;;;19.08;3.30;;;;;;;;;;4987090;28;20041;-73
2023/07/13 04:18:10;;;;;;;15.07;2.40;;;;;;;;;;4984926;28;20037;-71
2023/07/13 04:20:36;;;;;;;10.30;2.15;;;;;;;;;;4982998;28;20382;-72
2023/07/13 04:23:02;;;;;;;12.18;2.80;;;;;;;;;;4982466;28;20042;-72
2023/07/13 04:25:28;;;;;;;11.73;2.78;;;;;;;;;;4983966;28;20484;-72
2023/07/13 04:27:54;;;;;;;13.00;2.85;;;;;;;;;;4987101;28;20031;-72
2023/07/13 04:30:21;;;;;;;7.53;2.10;;;;;;;;;;4982656;28;20088;-72
2023/07/13 04:32:47;;;;;;;10.02;2.00;;;;;;;;;;4981739;28;20038;-72
2023/07/13 04:35:14;;;;;;;11.23;3.45;;;;;;;;;;4988549;28;20042;-72
2023/07/13 04:37:40;;;;;;;18.15;2.67;;;;;;;;;;4990831;28;20034;-72
2023/07/13 04:40:09;;;;;;;10.23;2.85;;;;;;;;;;4990475;28;20030;-72
2023/07/13 04:42:35;;;;;;;12.80;2.63;;;;;;;;;;4991333;28;20027;-72
2023/07/13 04:45:02;;;;;;;13.77;2.50;;;;;;;;;;4987161;28;20088;-72
2023/07/13 04:47:30;;;;;;;16.95;7.68;;;;;;;;;;4981991;28;20450;-80
2023/07/13 04:49:57;;;;;;;18.10;5.28;;;;;;;;;;4989734;28;20026;-79
2023/07/13 04:52:23;;;;;;;13.50;2.42;;;;;;;;;;4986439;28;20038;-72
2023/07/13 04:54:49;;;;;;;12.10;3.28;;;;;;;;;;4988361;28;20563;-73
2023/07/13 04:57:15;;;;;;;7.75;2.42;;;;;;;;;;4990946;28;20080;-72
2023/07/13 04:59:41;;;;;;;9.52;2.15;;;;;;;;;;4990903;28;20368;-72
2023/07/13 05:02:08;;;;;;;9.82;2.58;;;;;;;;;;4990417;28;20037;-72
2023/07/13 05:04:34;;;;;;;13.57;3.00;;;;;;;;;;4992314;28;20089;-72
2023/07/13 05:07:00;;;;;;;10.48;2.47;;;;;;;;;;4982550;28;20035;-72
2023/07/13 05:09:26;;;;;;;8.63;1.48;;;;;;;;;;4992402;28;20039;-72
2023/07/13 05:11:52;;;;;;;8.55;1.95;;;;;;;;;;4980411;28;20109;-72
2023/07/13 05:14:18;;;;;;;10.20;1.85;;;;;;;;;;4989646;28;20033;-73
2023/07/13 05:16:44;;;;;;;12.52;2.15;;;;;;;;;;4975628;28;20043;-73
2023/07/13 05:19:10;;;;;;;10.82;1.80;;;;;;;;;;4994233;28;20038;-72
2023/07/13 05:21:36;;;;;;;14.18;2.45;;;;;;;;;;4993959;28;20049;-72
2023/07/13 05:24:02;;;;;;;10.40;2.13;;;;;;;;;;4994037;28;20042;-72
2023/07/13 05:26:28;;;;;;;8.10;2.05;;;;;;;;;;4991570;28;20034;-73
2023/07/13 05:28:54;;;;;;;13.60;2.50;;;;;;;;;;4994832;28;20042;-72
2023/07/13 05:31:20;;;;;;;13.48;2.42;;;;;;;;;;4986199;28;20038;-72
2023/07/13 05:33:46;;;;;;;11.15;2.35;;;;;;;;;;4993837;28;20033;-72
2023/07/13 05:36:12;;;;;;;12.60;2.58;;;;;;;;;;4992951;28;20402;-72
2023/07/13 05:38:39;;;;;;;16.10;2.78;;;;;;;;;;4994227;28;20361;-73
2023/07/13 05:41:05;;;;;;;13.27;2.13;;;;;;;;;;4993306;28;20022;-73
2023/07/13 05:43:31;;;;;;;11.20;2.10;;;;;;;;;;4981066;28;20113;-73
2023/07/13 05:45:58;;;;;;;12.20;2.55;;;;;;;;;;4989214;28;20134;-73
2023/07/13 05:48:24;;;;;;;5.32;1.67;;;;;;;;;;4987931;28;20037;-72
2023/07/13 05:50:50;;;;;;;12.77;2.38;;;;;;;;;;4992241;28;20041;-73
2023/07/13 05:53:16;;;;;;;10.65;2.00;;;;;;;;;;4993800;28;20384;-73
2023/07/13 05:55:43;;;;;;;13.55;2.58;;;;;;;;;;4991207;28;20030;-73
2023/07/13 05:58:09;;;;;;;7.28;1.63;;;;;;;;;;5000740;28;20030;-74
2023/07/13 06:00:35;;;;;;;7.78;1.88;;;;;;;;;;4988418;28;20027;-73
2023/07/13 06:03:01;;;;;;;14.35;2.15;;;;;;;;;;4979850;28;20061;-73
2023/07/13 06:05:28;;;;;;;10.23;2.38;;;;;;;;;;5000660;28;20030;-73
2023/07/13 06:07:55;;;;;;;11.40;2.17;;;;;;;;;;4983890;28;20033;-74
2023/07/13 06:10:21;;;;;;;11.77;2.55;;;;;;;;;;4993675;28;20042;-73
2023/07/13 06:12:47;;;;;;;12.45;2.85;;;;;;;;;;4990780;28;20424;-73
2023/07/13 06:15:14;;;;;;;13.02;1.88;;;;;;;;;;4986319;28;20145;-73
2023/07/13 06:17:40;;;;;;;11.45;2.13;;;;;;;;;;4986969;28;20396;-73
2023/07/13 06:20:06;;;;;;;10.50;2.00;;;;;;;;;;5000907;28;20049;-73
2023/07/13 06:22:32;;;;;;;12.05;2.63;;;;;;;;;;4991284;28;20034;-73
2023/07/13 06:24:58;;;;;;;13.15;4.18;;;;;;;;;;4992479;28;20034;-73
2023/07/13 06:27:24;;;;;;;12.20;2.20;;;;;;;;;;4992452;28;20033;-73
2023/07/13 06:29:50;;;;;;;11.07;2.10;;;;;;;;;;4994895;28;20042;-73
2023/07/13 06:32:17;;;;;;;11.30;2.45;;;;;;;;;;4977221;28;20570;-73
2023/07/13 06:34:43;;;;;;;14.25;2.88;;;;;;;;;;4990333;28;20038;-73
2023/07/13 06:37:09;;;;;;;8.13;2.40;;;;;;;;;;4969539;28;20049;-73
2023/07/13 06:39:35;;;;;;;9.45;2.10;;;;;;;;;;4991052;28;20030;-73
2023/07/13 06:42:01;;;;;;;15.30;2.38;;;;;;;;;;4992792;28;20618;-73
2023/07/13 06:44:27;;;;;;;11.27;2.40;;;;;;;;;;4989745;28;20022;-73
2023/07/13 06:46:54;;;;;;;13.15;2.03;;;;;;;;;;4978562;28;20080;-73
2023/07/13 06:49:20;;;;;;;8.18;1.67;;;;;;;;;;4986791;28;20109;-73
2023/07/13 06:51:46;;;;;;;4.60;1.70;;;;;;;;;;4991405;28;20038;-74
2023/07/13 06:54:12;;;;;;;8.32;1.48;;;;;;;;;;4991108;28;20057;-73
2023/07/13 06:56:38;;;;;;;6.50;2.28;;;;;;;;;;4992959;28;20074;-73
2023/07/13 06:59:04;;;;;;;6.22;1.50;;;;;;;;;;5006964;28;20071;-73
2023/07/13 07:01:30;;;;;;;6.43;1.48;;;;;;;;;;4978409;28;20560;-74
2023/07/13 07:03:56;;;;;;;7.38;1.35;;;;;;;;;;4985617;28;20137;-74
2023/07/13 07:06:23;;;;;;;11.88;2.33;;;;;;;;;;5002575;28;20117;-73
2023/07/13 07:08:50;;;;;;;6.90;1.45;;;;;;;;;;4991920;28;20372;-73
2023/07/13 07:11:26;;;;;;;7.55;1.45;;;;;;;;;;4992761;28;20113;-73
2023/07/13 07:13:52;;;;;;;7.90;1.50;;;;;;;;;;4989501;28;20482;-73
2023/07/13 07:16:19;;;;;;;7.32;2.35;;;;;;;;;;4987648;28;20038;-73
2023/07/13 07:18:45;;;;;;;5.20;1.45;;;;;;;;;;4984572;28;20988;-73
2023/07/13 07:21:11;;;;;;;8.65;1.75;;;;;;;;;;4991603;28;20042;-73
2023/07/13 07:23:37;;;;;;;8.70;1.38;;;;;;;;;;4992355;28;20357;-73
2023/07/13 07:26:03;;;;;;;6.68;1.88;;;;;;;;;;4999703;28;20438;-74
2023/07/13 07:28:29;;;;;;;11.13;1.70;;;;;;;;;;4990227;28;20113;-73
2023/07/13 07:30:56;;;;;;;7.75;1.73;;;;;;;;;;4983677;28;20030;-74
2023/07/13 07:33:23;;;;;;;8.02;1.38;;;;;;;;;;4981131;28;20030;-73
2023/07/13 07:35:49;;;;;;;6.82;1.48;;;;;;;;;;4990413;28;20113;-73
2023/07/13 07:38:15;;;;;;;7.80;1.80;;;;;;;;;;4992003;28;20479;-73
2023/07/13 07:40:41;;;;;;;6.03;1.38;;;;;;;;;;4977168;28;20516;-74
2023/07/13 07:43:11;;;;;;;10.30;1.88;;;;;;;;;;4986182;28;20034;-73
2023/07/13 07:45:39;;;;;;;6.20;1.58;;;;;;;;;;4980831;28;20164;-75
2023/07/13 07:48:06;;;;;;;5.18;1.13;;;;;;;;;;4989623;28;20023;-73
2023/07/13 07:50:32;;;;;;;8.10;1.88;;;;;;;;;;4989233;28;20031;-73
2023/07/13 07:52:58;;;;;;;7.72;1.38;;;;;;;;;;4976276;28;20395;-73
2023/07/13 07:55:26;;;;;;;7.03;1.52;;;;;;;;;;4991828;28;20041;-73
2023/07/13 07:57:53;;;;;;;6.00;1.27;;;;;;;;;;4986189;28;20023;-73
2023/07/13 08:00:19;;;;;;;6.60;1.38;;;;;;;;;;4982808;28;20036;-73
2023/07/13 08:02:45;;;;;;;7.53;2.22;;;;;;;;;;4988328;28;20058;-72
2023/07/13 08:05:12;;;;;;;6.43;1.85;;;;;;;;;;4997069;28;20037;-74
2023/07/13 08:07:38;;;;;;;8.05;1.40;;;;;;;;;;4990789;28;20483;-72
2023/07/13 08:10:05;;;;;;;7.28;1.30;;;;;;;;;;4990300;28;20499;-71
2023/07/13 08:12:34;;;;;;;4.57;1.20;;;;;;;;;;4990545;28;20035;-71
2023/07/13 08:15:00;;;;;;;8.63;1.52;;;;;;;;;;4989355;28;20034;-73
2023/07/13 08:17:26;;;;;;;6.78;1.40;;;;;;;;;;4983668;28;20038;-73
2023/07/13 08:19:52;;;;;;;11.82;1.77;;;;;;;;;;4983738;28;20213;-74
2023/07/13 08:22:18;;;;;;;7.32;1.63;;;;;;;;;;4982398;28;20035;-73
2023/07/13 08:24:45;;;;;;;5.43;1.60;;;;;;;;;;4982144;28;20090;-72
2023/07/13 08:27:14;;;;;;;11.93;7.30;;;;;;;;;;4982588;28;20043;-75
2023/07/13 08:29:40;;;;;;;6.15;1.30;;;;;;;;;;4980130;28;20364;-75
2023/07/13 08:32:10;;;;;;;5.07;1.60;;;;;;;;;;4984925;28;20038;-75
2023/07/13 08:34:36;;;;;;;4.00;1.40;;;;;;;;;;4978208;28;20121;-76
2023/07/13 08:37:03;;;;;;;8.38;2.20;;;;;;;;;;4988159;28;20026;-74
2023/07/13 08:39:30;;;;;;;4.80;1.50;;;;;;;;;;4984478;28;20104;-74
2023/07/13 08:42:02;;;;;;;6.22;1.60;;;;;;;;;;4984941;28;20475;-75
2023/07/13 08:44:36;;;;;;;;;;;24.80;99.90;;;;;;4980903;28;20037;-75
2023/07/13 08:47:02;;;;;;;4.60;1.40;;;;;;;;;;4978132;28;19980;-73
2023/07/13 08:49:28;;;;;;;2.50;1.00;;;;;;;;;;4985583;28;20065;-74
2023/07/13 08:51:59;;;;;;;7.57;1.42;;;;;;;;;;4986346;28;20065;-75
2023/07/13 08:54:25;;;;;;;5.43;1.27;;;;;;;;;;4984498;28;20035;-73
2023/07/13 08:56:53;;;;;;;3.63;1.38;;;;;;;;;;4989770;28;20038;-73
2023/07/13 08:59:20;;;;;;;3.10;1.20;;;;;;;;;;4989761;28;20022;-73
2023/07/13 09:01:52;;;;;;;24.83;15.40;;;;;;;;;;4981697;28;20030;-75
2023/07/13 09:04:18;;;;;;;;;;;;;;;;;;4984315;28;20065;-76
2023/07/13 09:07:10;;;;;;;3.65;0.90;;;;;;;;;;4978203;28;19918;-70
2023/07/13 09:09:59;;;;;;;3.70;1.42;;;;;;;;;;4979871;28;20156;-70
2023/07/13 09:12:37;;;;;;;3.10;1.48;;;;;;;;;;4984228;28;20034;-71
2023/07/13 09:15:04;;;;;;;4.28;1.10;;;;;;;;;;4978366;28;20030;-71
2023/07/13 09:17:42;;;;;;;6.43;1.45;;;;;;;;;;4987112;28;20030;-72
2023/07/13 09:20:31;;;;;;;8.73;1.42;;;;;;;;;;4978822;28;20105;-73
2023/07/13 09:23:00;;;;;;;6.30;1.75;;;;;;;;;;4981143;28;20041;-79
2023/07/13 09:25:36;;;;;;;5.43;1.77;;;;;;;;;;4989306;28;20050;-77
2023/07/13 09:28:13;;;;;;;6.30;1.38;;;;;;;;;;4990342;28;20030;-71
2023/07/13 09:30:47;;;;;;;4.68;1.02;;;;;;;;;;4987613;28;20120;-72
2023/07/13 09:33:14;;;;;;;5.03;1.35;;;;;;;;;;4986868;28;20027;-72
2023/07/13 09:35:40;;;;;;;6.80;1.00;;;;;;;;;;4990110;28;20031;-72
2023/07/13 09:38:14;;;;;;;2.50;0.80;;;;;;;;;;4988595;28;20023;-72
2023/07/13 09:41:14;;;;;;;4.90;0.82;;;25.60;99.90;;;;;;4989863;28;20038;-72
2023/07/13 09:44:00;;;;;;;5.35;1.02;;;;;;;;;;4987284;28;20050;-72
2023/07/13 09:46:26;;;;;;;5.78;1.10;;;;;;;;;;4978974;28;20043;-72
2023/07/13 09:48:52;;;;;;;5.05;1.10;;;;;;;;;;4995029;28;20392;-72
2023/07/13 09:51:18;;;;;;;2.88;0.88;;;;;;;;;;4992700;28;20061;-72
2023/07/13 09:53:45;;;;;;;2.63;0.85;;;;;;;;;;4991226;28;20035;-72
2023/07/13 09:56:24;;;;;;;4.40;1.45;;;;;;;;;;4984104;28;20039;-74
2023/07/13 09:58:50;;;;;;;5.40;0.88;;;;;;;;;;4986803;28;20125;-77
2023/07/13 10:01:16;;;;;;;7.15;1.10;;;;;;;;;;4988062;28;20106;-78
2023/07/13 10:03:53;;;;;;;4.25;0.98;;;;;;;;;;4987083;28;20498;-76
2023/07/13 10:06:21;;;;;;;3.15;0.90;;;;;;;;;;4989292;28;20053;-76
2023/07/13 10:08:48;;;;;;;4.10;0.90;;;;;;;;;;4991598;28;20022;-76
2023/07/13 10:11:17;;;;;;;9.63;7.35;;;;;;;;;;4988573;28;20479;-74
2023/07/13 10:13:45;;;;;;;4.90;1.83;;;;;;;;;;4994100;28;20027;-77
2023/07/13 10:16:12;;;;;;;3.20;0.85;;;;;;;;;;4978845;28;20492;-74
2023/07/13 10:18:45;;;;;;;3.45;0.98;;;;;;;;;;4993452;28;20038;-74
2023/07/13 10:21:13;;;;;;;5.00;1.42;;;;;;;;;;4992163;28;20027;-74
2023/07/13 10:23:39;;;;;;;2.20;0.82;;;;;;;;;;4992182;28;20342;-74
2023/07/13 10:26:09;;;;;;;3.13;0.80;;;;;;;;;;4990443;28;20129;-74
2023/07/13 10:28:37;;;;;;;2.47;0.80;;;;;;;;;;4990531;28;20030;-74
2023/07/13 10:31:06;;;;;;;4.45;1.00;;;;;;;;;;4983041;28;20593;-74
2023/07/13 10:33:32;;;;;;;3.10;0.93;;;;;;;;;;5006714;28;20045;-74
2023/07/13 10:36:04;;;;;;;2.72;0.98;;;;;;;;;;4992098;28;20066;-74
2023/07/13 10:38:30;;;;;;;4.30;1.30;;;;;;;;;;4989394;28;20033;-75
2023/07/13 10:41:15;;;;;;;4.30;1.25;;;;;;;;;;4992628;28;20110;-76
2023/07/13 10:43:47;;;;;;;7.70;1.25;;;;;;;;;;4990801;28;20037;-73
2023/07/13 10:46:17;;;;;;;4.65;0.90;;;;;;;;;;4982569;28;20039;-72
2023/07/13 10:48:45;;;;;;;3.45;1.05;;;;;;;;;;4988082;28;20027;-74
2023/07/13 10:51:12;;;;;;;3.35;0.80;;;;;;;;;;4981839;28;20034;-74
2023/07/13 10:53:43;;;;;;;2.88;1.20;;;;;;;;;;4987049;28;20038;-75
2023/07/13 10:56:28;;;;;;;6.20;0.80;;;;;;;;;;4993201;28;20044;-74
2023/07/13 10:59:10;;;;;;;6.05;1.10;;;;;;;;;;4992592;28;20514;-75
2023/07/13 11:01:36;;;;;;;;;;;;;;;;;;4984649;28;20113;-74
2023/07/13 11:04:03;;;;;;;6.95;1.60;;;;;;;;;;4986985;28;20339;-73
2023/07/13 11:06:29;;;;;;;3.65;1.70;;;;;;;;;;4982122;28;20121;-80
2023/07/13 11:08:57;;;;;;;8.15;1.52;;;;;;;;;;4984057;28;20487;-83
2023/07/13 11:11:23;;;;;;;3.88;1.02;;;;;;;;;;4985860;28;20498;-75
2023/07/13 11:13:49;;;;;;;3.35;1.13;;;;;;;;;;4991919;28;20030;-75
2023/07/13 11:16:18;;;;;;;5.10;1.20;;;;;;;;;;5000097;28;20288;-74
2023/07/13 11:18:51;;;;;;;4.00;1.00;;;;;;;;;;5008567;28;20113;-74
2023/07/13 11:21:28;;;;;;;3.95;1.30;;;;;;;;;;4992376;28;20030;-75
2023/07/13 11:24:05;;;;;;;4.25;1.27;;;;;;;;;;4989565;28;20038;-74
2023/07/13 11:26:43;;;;;;;4.40;1.27;;;;;;;;;;4987523;28;20050;-74
2023/07/13 11:29:21;;;;;;;4.80;1.30;;;;;;;;;;4992416;28;20037;-74
2023/07/13 11:31:54;;;;;;;2.63;0.98;;;;;;;;;;4979081;28;20097;-74
2023/07/13 11:34:31;;;;;;;4.60;1.10;;;;;;;;;;4990181;28;20034;-74
2023/07/13 11:36:59;;;;;;;5.05;1.35;;;;;;;;;;4991504;28;20030;-75
2023/07/13 11:39:33;;;;;;;6.40;1.17;;;;;;;;;;5003769;28;20484;-74
2023/07/13 11:42:04;;;;;;;4.85;1.38;;;;;;;;;;4990416;28;20334;-74
2023/07/13 11:44:31;;;;;;;4.90;1.23;;;;;;;;;;4989891;28;20411;-74
2023/07/13 11:47:08;;;;;;;2.05;0.80;;;;;;;;;;4976543;28;20047;-74
2023/07/13 11:49:39;;;;;;;3.55;1.33;;;;;;;;;;4986463;28;20026;-74
2023/07/13 11:52:05;;;;;;;4.43;1.23;;;;;;;;;;4990284;28;20038;-74
2023/07/13 11:54:33;;;;;;;3.97;1.00;;;;;;;;;;4991616;28;20030;-74
2023/07/13 11:57:06;;;;;;;4.00;1.23;;;;;;;;;;4990815;28;20383;-74
2023/07/13 11:59:33;;;;;;;4.10;0.90;;;;;;;;;;4985780;28;20475;-74
2023/07/13 12:02:00;;;;;;;4.03;2.17;;;;;;;;;;4972872;28;20052;-74
2023/07/13 12:04:28;;;;;;;4.88;2.13;;;;;;;;;;4981053;28;20407;-74
2023/07/13 12:06:58;;;;;;;5.60;1.30;;;;;;;;;;4990584;28;20034;-74
2023/07/13 12:09:26;;;;;;;4.15;1.05;;;;;;;;;;4990467;28;20030;-74
2023/07/13 12:11:52;;;;;;;3.25;1.05;;;;;;;;;;4991243;28;20251;-75
2023/07/13 12:14:19;;;;;;;5.78;1.10;;;;;;;;;;4983848;28;20035;-74
2023/07/13 12:16:47;;;;;;;2.92;1.17;;;;;;;;;;4982428;28;20100;-74
2023/07/13 12:19:31;;;;;;;7.40;1.73;;;;;;;;;;4989588;28;20380;-74
2023/07/13 12:21:59;;;;;;;3.92;1.10;;;;;;;;;;4969648;28;20039;-74
2023/07/13 12:24:26;;;;;;;8.57;1.35;;;;;;;;;;4970645;28;20113;-74
2023/07/13 12:27:00;;;;;;;3.83;0.95;;;;;;;;;;4995326;28;20039;-74
2023/07/13 12:29:26;;;;;;;5.97;1.30;;;;;;;;;;4989104;28;20037;-74
2023/07/13 12:31:52;;;;;;;6.18;1.20;;;;;;;;;;4990199;28;20542;-74
2023/07/13 12:34:22;;;;;;;7.82;1.10;;;;;;;;;;4993148;28;20057;-74
2023/07/13 12:36:55;;;;;;;6.28;1.33;;;;;;;;;;4989263;28;20065;-74
2023/07/13 12:39:24;;;;;;;4.95;1.00;;;;;;;;;;4988324;28;20050;-74
2023/07/13 12:41:51;;;;;;;5.93;1.10;;;;;;;;;;4989714;28;20391;-74
2023/07/13 12:44:28;;;;;;;7.03;1.02;;;;;;;;;;4990223;28;20022;-74
2023/07/13 12:46:59;;;;;;;4.65;0.90;;;;;;;;;;4989712;28;20437;-74
2023/07/13 12:49:28;;;;;;;2.15;0.90;;;;;;;;;;4990320;28;20033;-74
2023/07/13 12:52:02;;;;;;;4.05;0.77;;;;;;;;;;4987884;28;20426;-74
2023/07/13 12:54:29;;;;;;;3.03;0.80;;;;;;;;;;4988635;28;20045;-74
2023/07/13 12:56:58;;;;;;;2.42;0.80;;;;;;;;;;4989077;28;20045;-75
2023/07/13 12:59:25;;;;;;;3.80;1.20;;;;;;;;;;4990157;28;20121;-74
2023/07/13 13:01:53;;;;;;;7.00;1.27;;;;;;;;;;4992808;28;20030;-75
2023/07/13 13:04:22;;;;;;;4.68;1.20;;;;;;;;;;4990519;28;20775;-74
2023/07/13 13:06:49;;;;;;;2.80;1.50;;;;;;;;;;4987075;28;20372;-74
2023/07/13 13:09:16;;;;;;;4.90;1.00;;;;;;;;;;4987731;28;20307;-74
2023/07/13 13:11:42;;;;;;;4.97;1.00;;;;;;;;;;4990546;28;20031;-74
2023/07/13 13:14:09;;;;;;;4.93;1.10;;;;;;;;;;4990927;28;20501;-75
2023/07/13 13:16:37;;;;;;;5.80;1.52;;;;;;;;;;4989014;28;20030;-74
2023/07/13 13:19:15;;;;;;;8.85;1.00;;;;;;;;;;5010494;28;20034;-74
2023/07/13 13:21:41;;;;;;;3.90;1.40;;;;;;;;;;4995838;28;20062;-74
2023/07/13 13:24:14;;;;;;;4.65;1.50;;;;;;;;;;4989687;28;20484;-74
2023/07/13 13:26:41;;;;;;;5.13;1.00;;;;;;;;;;4990428;28;20034;-74
2023/07/13 13:29:13;;;;;;;7.53;1.50;;;;;;;;;;4983840;28;20026;-74
2023/07/13 13:31:39;;;;;;;7.07;2.30;;;;;;;;;;4991709;28;20022;-74
2023/07/13 13:34:08;;;;;;;4.85;1.17;;;;;;;;;;4975248;28;20026;-74
2023/07/13 13:36:34;;;;;;;5.90;1.83;;;;;;;;;;4982143;28;20022;-74
2023/07/13 13:39:01;;;;;;;4.82;1.35;;;;;;;;;;4999090;28;20037;-74
2023/07/13 13:41:28;;;;;;;3.35;1.00;;;;;;;;;;4998781;28;20033;-74
2023/07/13 13:43:54;;;;;;;8.90;1.50;;;;;;;;;;4994006;28;20026;-74
2023/07/13 13:46:24;;;;;;;5.60;1.45;;;;;;;;;;4991543;28;20043;-74
2023/07/13 13:48:50;;;;;;;6.15;1.40;;;;;;;;;;4992110;28;20023;-74
2023/07/13 13:51:18;;;;;;;4.55;1.20;;;;;;;;;;4992163;28;20030;-74
2023/07/13 13:53:45;;;;;;;3.58;1.00;;;;;;;;;;4990723;28;20035;-74
2023/07/13 13:56:11;;;;;;;5.78;1.55;;;;;;;;;;4993063;28;20125;-74
2023/07/13 13:58:37;;;;;;;8.38;1.48;;;;;;;;;;4992592;28;20054;-74
2023/07/13 14:01:08;;;;;;;7.05;1.67;;;;;;;;;;4989773;28;20198;-74
2023/07/13 14:03:34;;;;;;;5.07;1.60;;;;;;;;;;4986833;28;20077;-75
2023/07/13 14:06:00;;;;;;;4.38;1.13;;;;;;;;;;4985421;28;20052;-78
2023/07/13 14:08:26;;;;;;;5.65;1.10;;;;;;;;;;4983277;28;20053;-77
2023/07/13 14:10:55;;;;;;;3.40;1.27;;;;;;;;;;4991131;28;20030;-76
2023/07/13 14:13:34;;;;;;;5.13;1.17;;;;;;;;;;4987994;28;20030;-82
2023/07/13 14:16:00;;;;;;;8.13;2.10;;;;;;;;;;4987630;28;20034;-78
2023/07/13 14:18:26;;;;;;;8.43;4.93;;;;;;;;;;4992762;28;20038;-81
2023/07/13 14:20:52;;;;;;;2.58;1.00;;;;;;;;;;4985704;28;20034;-82
2023/07/13 14:23:18;;;;;;;5.43;1.45;;;;;;;;;;4984332;28;20069;-74
2023/07/13 14:25:45;;;;;;;6.97;1.35;;;;;;;;;;4993024;28;20480;-74
2023/07/13 14:28:25;;;;;;;4.68;1.52;;;;;;;;;;4993657;28;20034;-74
2023/07/13 14:30:52;;;;;;;4.10;1.00;;;;;;;;;;4984222;28;20030;-74
2023/07/13 14:33:18;;;;;;;12.68;3.28;;;;;;;;;;4984901;28;20046;-75
2023/07/13 14:35:44;;;;;;;4.82;1.10;;;;;;;;;;4989563;28;20034;-76
2023/07/13 14:38:16;;;;;;;6.00;1.40;;;;;;;;;;4988909;28;20045;-80
2023/07/13 14:40:42;;;;;;;;;;;;;;;;;;4990886;28;20080;-80
2023/07/13 14:43:12;;;;;;;3.92;1.25;;;;;;;;;;4980945;28;19914;-74
2023/07/13 14:45:40;;;;;;;8.77;1.92;;;;;;;;;;4980045;28;20034;-75